createdAt,value
2023-10-04T00:01:30.509Z,98948.75
2023-10-04T00:03:57.393Z,98954.94
2023-10-04T00:06:24.139Z,98959.00
2023-10-04T00:08:50.968Z,98956.81
2023-10-04T00:11:17.796Z,98952.28
2023-10-04T00:13:47.274Z,98947.63
2023-10-04T00:16:14.606Z,98950.72
2023-10-04T00:18:41.372Z,98956.53
2023-10-04T00:21:11.699Z,98950.06
2023-10-04T00:23:42.192Z,98947.94
2023-10-04T00:26:09.580Z,98947.75
2023-10-04T00:28:39.318Z,98948.31
2023-10-04T00:31:06.940Z,98953.50
2023-10-04T00:33:36.709Z,98958.00
2023-10-04T00:36:07.191Z,98962.09
2023-10-04T00:38:34.055Z,98968.16
2023-10-04T00:41:00.951Z,98966.00
2023-10-04T00:43:27.731Z,98981.13
2023-10-04T00:45:54.763Z,98987.88
2023-10-04T00:48:35.934Z,98985.63
2023-10-04T00:51:02.892Z,98993.81
2023-10-04T00:53:30.968Z,98977.63
2023-10-04T00:55:58.531Z,98976.91
2023-10-04T00:58:26.697Z,98993.00
2023-10-04T01:00:53.807Z,98996.09
2023-10-04T01:03:21.521Z,98998.50
2023-10-04T01:05:49.111Z,98996.91
2023-10-04T01:08:16.973Z,99005.53
2023-10-04T01:10:45.876Z,99005.97
2023-10-04T01:13:12.982Z,99016.41
2023-10-04T01:15:40.809Z,99011.19
2023-10-04T01:18:10.605Z,99008.81
2023-10-04T01:20:39.768Z,98989.75
2023-10-04T01:23:13.714Z,99025.59
2023-10-04T01:25:42.564Z,99038.59
2023-10-04T01:28:18.227Z,99031.41
2023-10-04T01:30:53.201Z,99021.25
2023-10-04T01:33:20.577Z,99020.66
2023-10-04T01:35:55.111Z,99024.75
2023-10-04T01:38:33.496Z,99035.50
2023-10-04T01:41:00.575Z,99030.88
2023-10-04T01:43:28.571Z,99036.50
2023-10-04T01:45:58.764Z,99047.53
2023-10-04T01:48:28.066Z,99045.41
2023-10-04T01:50:55.175Z,99045.63
2023-10-04T01:53:27.752Z,99046.66
2023-10-04T01:55:57.838Z,99054.94
2023-10-04T01:58:25.105Z,99049.16
2023-10-04T02:00:54.244Z,99056.81
2023-10-04T02:03:21.821Z,99057.97
2023-10-04T02:05:58.315Z,99069.84
2023-10-04T02:08:26.155Z,99069.41
2023-10-04T02:10:53.689Z,99067.00
2023-10-04T02:13:20.664Z,99066.59
2023-10-04T02:15:52.107Z,99066.16
2023-10-04T02:18:21.024Z,99062.19
2023-10-04T02:20:50.118Z,99063.63
2023-10-04T02:23:18.125Z,99057.09
2023-10-04T02:25:46.842Z,99061.22
2023-10-04T02:28:19.751Z,99071.00
2023-10-04T02:30:49.641Z,99067.44
2023-10-04T02:33:18.348Z,99064.91
2023-10-04T02:35:48.507Z,99066.03
2023-10-04T02:38:27.666Z,99070.81
2023-10-04T02:40:55.444Z,99077.84
2023-10-04T02:43:26.512Z,99070.34
2023-10-04T02:45:54.593Z,99076.16
2023-10-04T02:48:21.753Z,99060.06
2023-10-04T02:50:48.923Z,99070.38
2023-10-04T02:53:26.185Z,99076.34
2023-10-04T02:55:58.423Z,99080.72
2023-10-04T02:58:31.676Z,99085.50
2023-10-04T03:00:58.934Z,99087.41
2023-10-04T03:03:26.088Z,99093.59
2023-10-04T03:05:59.080Z,99087.41
2023-10-04T03:08:28.301Z,99088.09
2023-10-04T03:10:56.773Z,99089.66
2023-10-04T03:13:27.187Z,99094.75
2023-10-04T03:15:59.053Z,99097.19
2023-10-04T03:18:29.351Z,99104.97
2023-10-04T03:21:02.371Z,99111.88
2023-10-04T03:23:37.101Z,99117.53
2023-10-04T03:26:14.065Z,99126.41
2023-10-04T03:28:42.563Z,99126.63
2023-10-04T03:31:15.742Z,99133.00
2023-10-04T03:33:46.766Z,99121.66
2023-10-04T03:36:21.186Z,99124.44
2023-10-04T03:38:55.150Z,99126.00
2023-10-04T03:41:22.718Z,99126.88
2023-10-04T03:43:52.176Z,99126.34
2023-10-04T03:46:21.942Z,99136.91
2023-10-04T03:48:54.002Z,99132.94
2023-10-04T03:51:23.038Z,99143.22
2023-10-04T03:53:52.505Z,99133.00
2023-10-04T03:56:22.035Z,99139.81
2023-10-04T03:58:50.497Z,99140.06
2023-10-04T04:01:18.484Z,99150.97
2023-10-04T04:03:50.792Z,99142.19
2023-10-04T04:06:18.485Z,99143.56
2023-10-04T04:08:47.986Z,99145.88
2023-10-04T04:11:15.597Z,99155.84
2023-10-04T04:13:43.236Z,99163.09
2023-10-04T04:16:12.815Z,99165.06
2023-10-04T04:18:41.741Z,99190.03
2023-10-04T04:21:09.824Z,99193.19
2023-10-04T04:23:38.000Z,99191.00
2023-10-04T04:26:09.479Z,99201.34
2023-10-04T04:28:38.890Z,99205.59
2023-10-04T04:31:16.600Z,99199.84
2023-10-04T04:33:45.950Z,99205.28
2023-10-04T04:36:29.097Z,99222.53
2023-10-04T04:39:07.343Z,99221.50
2023-10-04T04:41:36.816Z,99220.44
2023-10-04T04:44:08.826Z,99226.34
2023-10-04T04:46:37.072Z,99231.56
2023-10-04T04:49:05.427Z,99232.34
2023-10-04T04:51:33.085Z,99231.81
2023-10-04T04:54:00.252Z,99250.91
2023-10-04T04:56:33.039Z,99252.19
2023-10-04T04:59:10.511Z,99251.47
2023-10-04T05:01:41.268Z,99251.28
2023-10-04T05:04:09.364Z,99266.13
2023-10-04T05:06:38.178Z,99238.38
2023-10-04T05:09:06.701Z,99261.38
2023-10-04T05:11:33.986Z,99268.22
2023-10-04T05:14:01.566Z,99267.66
2023-10-04T05:16:28.375Z,99270.78
2023-10-04T05:18:55.675Z,99287.44
2023-10-04T05:21:22.960Z,99288.72
2023-10-04T05:23:49.902Z,99294.72
2023-10-04T05:26:16.703Z,99305.09
2023-10-04T05:28:43.452Z,99291.81
2023-10-04T05:31:10.476Z,99312.31
2023-10-04T05:33:37.758Z,99322.22
2023-10-04T05:36:05.162Z,99320.63
2023-10-04T05:38:33.488Z,99333.97
2023-10-04T05:41:02.181Z,99334.59
2023-10-04T05:43:30.807Z,99326.03
2023-10-04T05:45:58.551Z,99337.22
2023-10-04T05:48:27.630Z,99335.75
2023-10-04T05:50:59.691Z,99339.97
2023-10-04T05:53:27.687Z,99352.66
2023-10-04T05:55:55.416Z,99355.50
2023-10-04T05:58:22.913Z,99354.41
2023-10-04T06:00:57.911Z,99360.66
2023-10-04T06:03:25.105Z,99376.94
2023-10-04T06:05:54.984Z,99374.50
2023-10-04T06:08:23.074Z,99374.28
2023-10-04T06:10:52.713Z,99385.66
2023-10-04T06:13:24.014Z,99396.09
2023-10-04T06:15:54.894Z,99395.59
2023-10-04T06:18:27.671Z,99408.22
2023-10-04T06:20:54.827Z,99406.84
2023-10-04T06:23:22.674Z,99415.84
2023-10-04T06:25:51.218Z,99407.22
2023-10-04T06:28:18.768Z,99424.16
2023-10-04T06:30:49.903Z,99410.53
2023-10-04T06:33:17.394Z,99425.91
2023-10-04T06:35:44.967Z,99420.47
2023-10-04T06:38:13.735Z,99443.16
2023-10-04T06:40:41.152Z,99448.84
2023-10-04T06:43:12.113Z,99443.78
2023-10-04T06:45:41.239Z,99456.81
2023-10-04T06:48:09.293Z,99463.66
2023-10-04T06:50:40.293Z,99468.44
2023-10-04T06:53:10.330Z,99476.06
2023-10-04T06:55:38.754Z,99480.72
2023-10-04T06:58:07.996Z,99483.34
2023-10-04T07:00:38.517Z,99488.63
2023-10-04T07:03:06.674Z,99488.06
2023-10-04T07:05:38.589Z,99484.75
2023-10-04T07:08:07.951Z,99501.09
2023-10-04T07:10:36.251Z,99505.91
2023-10-04T07:13:04.465Z,99504.41
2023-10-04T07:15:36.643Z,99513.16
2023-10-04T07:18:08.450Z,99510.81
2023-10-04T07:20:36.126Z,99524.00
2023-10-04T07:23:09.305Z,99522.91
2023-10-04T07:25:39.357Z,99526.16
2023-10-04T07:28:10.714Z,99542.16
2023-10-04T07:30:40.812Z,99524.59
2023-10-04T07:33:11.442Z,99536.13
2023-10-04T07:35:38.683Z,99545.84
2023-10-04T07:38:06.337Z,99534.38
2023-10-04T07:40:33.759Z,99549.69
2023-10-04T07:43:02.361Z,99540.56
2023-10-04T07:45:30.632Z,99554.94
2023-10-04T07:47:58.686Z,99551.84
2023-10-04T07:50:27.356Z,99556.53
2023-10-04T07:53:00.981Z,99558.81
2023-10-04T07:55:28.749Z,99561.16
2023-10-04T07:58:05.682Z,99573.06
2023-10-04T08:00:37.855Z,99576.41
2023-10-04T08:03:05.780Z,99579.38
2023-10-04T08:05:33.983Z,99586.69
2023-10-04T08:08:07.154Z,99588.56
2023-10-04T08:10:37.016Z,99585.31
2023-10-04T08:13:05.501Z,99578.59
2023-10-04T08:15:36.673Z,99563.34
2023-10-04T08:18:05.326Z,99586.88
2023-10-04T08:20:34.993Z,99590.38
2023-10-04T08:23:03.951Z,99583.22
2023-10-04T08:25:33.200Z,99579.50
2023-10-04T08:28:01.191Z,99583.25
2023-10-04T08:30:29.492Z,99588.75
2023-10-04T08:32:56.385Z,99590.81
2023-10-04T08:35:23.597Z,99594.06
2023-10-04T08:37:54.287Z,99594.00
2023-10-04T08:40:22.558Z,99590.78
2023-10-04T08:42:51.770Z,99594.84
2023-10-04T08:45:22.858Z,99597.38
2023-10-04T08:47:51.881Z,99599.28
2023-10-04T08:50:39.730Z,99597.75
2023-10-04T08:53:12.953Z,99595.72
2023-10-04T08:55:42.415Z,99601.06
2023-10-04T08:58:10.808Z,99611.16
2023-10-04T09:00:44.477Z,99606.41
2023-10-04T09:03:14.040Z,99609.31
2023-10-04T09:05:47.391Z,99616.44
2023-10-04T09:08:17.945Z,99611.78
2023-10-04T09:10:46.389Z,99613.53
2023-10-04T09:13:13.934Z,99605.31
2023-10-04T09:15:41.849Z,99604.88
2023-10-04T09:18:09.449Z,99596.38
2023-10-04T09:20:38.038Z,99606.00
2023-10-04T09:23:17.063Z,99598.56
2023-10-04T09:25:46.635Z,99599.03
2023-10-04T09:28:13.557Z,99599.22
2023-10-04T09:30:40.447Z,99600.94
2023-10-04T09:33:30.057Z,99597.25
2023-10-04T09:35:57.224Z,99608.09
2023-10-04T09:38:26.322Z,99613.72
2023-10-04T09:40:58.266Z,99613.19
2023-10-04T09:43:36.495Z,99619.25
2023-10-04T09:46:08.818Z,99622.03
2023-10-04T09:48:43.193Z,99617.00
2023-10-04T09:51:11.034Z,99623.47
2023-10-04T09:53:41.951Z,99619.38
2023-10-04T09:56:13.706Z,99626.72
2023-10-04T09:59:00.783Z,99617.28
2023-10-04T10:01:30.539Z,99633.13
2023-10-04T10:04:04.247Z,99622.66
2023-10-04T10:06:36.323Z,99630.03
2023-10-04T10:09:06.336Z,99622.84
2023-10-04T10:11:34.089Z,99624.97
2023-10-04T10:14:05.472Z,99621.22
2023-10-04T10:16:35.382Z,99622.75
2023-10-04T10:19:04.948Z,99624.44
2023-10-04T10:22:07.414Z,99626.13
2023-10-04T10:24:34.904Z,99631.69
2023-10-04T10:27:09.044Z,99625.63
2023-10-04T10:29:37.669Z,99625.66
2023-10-04T10:32:10.461Z,99629.81
2023-10-04T10:34:37.413Z,99635.41
2023-10-04T10:37:23.685Z,99632.31
2023-10-04T10:39:52.583Z,99634.25
2023-10-04T10:42:20.390Z,99643.78
2023-10-04T10:44:49.193Z,99647.47
2023-10-04T10:47:26.900Z,99641.94
2023-10-04T10:49:57.585Z,99645.72
2023-10-04T10:52:35.902Z,99634.09
2023-10-04T10:55:06.900Z,99613.41
2023-10-04T10:57:38.023Z,99616.13
2023-10-04T11:00:20.431Z,99624.13
2023-10-04T11:02:55.012Z,99608.47
2023-10-04T11:05:23.314Z,99615.25
2023-10-04T11:07:51.908Z,99618.41
2023-10-04T11:10:18.926Z,99608.22
2023-10-04T11:12:47.987Z,99613.50
2023-10-04T11:15:19.314Z,99614.44
2023-10-04T11:17:47.445Z,99617.19
2023-10-04T11:20:19.244Z,99616.84
2023-10-04T11:22:46.925Z,99629.38
2023-10-04T11:25:14.884Z,99635.22
2023-10-04T11:27:51.750Z,99609.44
2023-10-04T11:30:20.237Z,99624.03
2023-10-04T11:32:47.704Z,99624.28
2023-10-04T11:35:19.912Z,99612.53
2023-10-04T11:37:49.935Z,99606.72
2023-10-04T11:40:26.332Z,99610.59
2023-10-04T11:43:04.665Z,99603.94
2023-10-04T11:45:33.186Z,99603.06
2023-10-04T11:48:09.355Z,99606.88
2023-10-04T11:50:46.950Z,99621.84
2023-10-04T11:53:14.565Z,99613.81
2023-10-04T11:55:41.800Z,99610.88
2023-10-04T11:58:11.658Z,99599.78
2023-10-04T12:00:38.938Z,99606.00
2023-10-04T12:03:07.522Z,99605.06
2023-10-04T12:05:34.670Z,99608.47
2023-10-04T12:08:02.455Z,99620.72
2023-10-04T12:10:29.368Z,99607.34
2023-10-04T12:12:59.181Z,99609.16
2023-10-04T12:15:26.770Z,99595.19
2023-10-04T12:17:53.821Z,99605.84
2023-10-04T12:20:22.159Z,99606.81
2023-10-04T12:22:53.183Z,99603.06
2023-10-04T12:25:23.136Z,99609.03
2023-10-04T12:27:55.416Z,99606.63
2023-10-04T12:30:25.122Z,99616.69
2023-10-04T12:32:52.832Z,99619.63
2023-10-04T12:35:19.788Z,99601.22
2023-10-04T12:37:46.745Z,99597.06
2023-10-04T12:40:33.885Z,99596.16
2023-10-04T12:43:01.015Z,99586.13
2023-10-04T12:45:30.592Z,99580.22
2023-10-04T12:47:57.922Z,99573.84
2023-10-04T12:50:26.214Z,99583.47
2023-10-04T12:52:53.067Z,99596.06
2023-10-04T12:55:19.773Z,99592.28
2023-10-04T12:57:46.976Z,99594.75
2023-10-04T13:00:17.407Z,99594.69
2023-10-04T13:02:45.752Z,99599.00
2023-10-04T13:05:15.614Z,99589.13
2023-10-04T13:07:44.178Z,99586.25
2023-10-04T13:10:12.099Z,99574.69
2023-10-04T13:12:39.807Z,99582.34
2023-10-04T13:15:08.080Z,99579.25
2023-10-04T13:17:38.822Z,99582.19
2023-10-04T13:20:10.590Z,99581.09
2023-10-04T13:22:37.490Z,99591.13
2023-10-04T13:25:08.105Z,99584.59
2023-10-04T13:27:36.196Z,99582.41
2023-10-04T13:30:03.320Z,99570.78
2023-10-04T13:32:31.448Z,99581.41
2023-10-04T13:34:58.762Z,99579.19
2023-10-04T13:37:25.555Z,99561.53
2023-10-04T13:39:52.909Z,99566.59
2023-10-04T13:42:28.672Z,99571.16
2023-10-04T13:44:58.503Z,99559.25
2023-10-04T13:47:25.474Z,99563.53
2023-10-04T13:49:52.302Z,99558.94
2023-10-04T13:52:20.397Z,99555.25
2023-10-04T13:54:54.797Z,99555.53
2023-10-04T13:57:24.051Z,99563.63
2023-10-04T13:59:50.893Z,99557.19
2023-10-04T14:02:20.157Z,99529.50
2023-10-04T14:04:47.487Z,99545.34
2023-10-04T14:07:15.178Z,99537.56
2023-10-04T14:09:42.143Z,99534.94
2023-10-04T14:12:08.763Z,99536.19
2023-10-04T14:14:46.697Z,99546.00
2023-10-04T14:17:14.856Z,99532.19
2023-10-04T14:19:43.696Z,99535.44
2023-10-04T14:22:11.435Z,99521.72
2023-10-04T14:24:38.273Z,99521.72
2023-10-04T14:27:05.037Z,99540.16
2023-10-04T14:29:32.028Z,99542.25
2023-10-04T14:31:59.163Z,99530.47
2023-10-04T14:34:26.212Z,99524.22
2023-10-04T14:36:52.942Z,99532.09
2023-10-04T14:39:22.871Z,99524.09
2023-10-04T14:41:50.008Z,99522.69
2023-10-04T14:44:19.957Z,99521.34
2023-10-04T14:46:49.863Z,99515.19
2023-10-04T14:49:19.934Z,99521.75
2023-10-04T14:51:47.396Z,99525.41
2023-10-04T14:54:15.252Z,99520.25
2023-10-04T14:56:43.087Z,99513.56
2023-10-04T14:59:10.051Z,99509.09
2023-10-04T15:01:36.648Z,99510.53
2023-10-04T15:04:04.978Z,99507.16
2023-10-04T15:06:32.093Z,99513.09
2023-10-04T15:08:58.757Z,99517.38
2023-10-04T15:11:30.676Z,99496.81
2023-10-04T15:13:59.337Z,99501.19
2023-10-04T15:16:26.510Z,99491.94
2023-10-04T15:18:54.533Z,99500.75
2023-10-04T15:21:21.500Z,99514.94
2023-10-04T15:23:48.337Z,99511.53
2023-10-04T15:26:14.949Z,99513.00
2023-10-04T15:28:45.435Z,99515.84
2023-10-04T15:31:14.608Z,99511.78
2023-10-04T15:33:42.533Z,99515.94
2023-10-04T15:36:10.327Z,99508.28
2023-10-04T15:38:37.992Z,99511.50
2023-10-04T15:41:04.839Z,99516.59
2023-10-04T15:43:31.648Z,99530.78
2023-10-04T15:45:59.562Z,99525.69
2023-10-04T15:48:26.613Z,99523.00
2023-10-04T15:50:53.337Z,99530.41
2023-10-04T15:53:20.078Z,99519.31
2023-10-04T15:55:46.886Z,99518.53
2023-10-04T15:58:13.672Z,99528.63
2023-10-04T16:00:42.335Z,99531.59
2023-10-04T16:03:10.830Z,99526.69
2023-10-04T16:05:37.740Z,99539.03
2023-10-04T16:08:05.576Z,99537.38
2023-10-04T16:10:32.427Z,99548.16
2023-10-04T16:13:00.481Z,99547.59
2023-10-04T16:15:27.666Z,99549.88
2023-10-04T16:17:55.676Z,99553.13
2023-10-04T16:20:23.051Z,99555.56
2023-10-04T16:22:55.720Z,99547.78
2023-10-04T16:25:22.870Z,99547.78
2023-10-04T16:27:51.471Z,99549.94
2023-10-04T16:30:19.841Z,99543.56
2023-10-04T16:32:48.070Z,99557.16
2023-10-04T16:35:16.873Z,99549.34
2023-10-04T16:37:46.586Z,99560.53
2023-10-04T16:40:16.612Z,99556.00
2023-10-04T16:42:47.259Z,99561.66
2023-10-04T16:45:14.284Z,99552.59
2023-10-04T16:47:42.803Z,99567.19
2023-10-04T16:50:09.870Z,99570.75
2023-10-04T16:52:37.015Z,99572.84
2023-10-04T16:55:08.785Z,99573.13
2023-10-04T16:57:35.792Z,99580.78
2023-10-04T17:00:02.898Z,99585.13
2023-10-04T17:02:29.695Z,99583.28
2023-10-04T17:04:56.459Z,99584.13
2023-10-04T17:07:23.836Z,99584.13
2023-10-04T17:09:50.867Z,99578.75
2023-10-04T17:12:17.748Z,99585.00
2023-10-04T17:14:44.467Z,99583.00
2023-10-04T17:17:11.346Z,99588.25
2023-10-04T17:19:38.648Z,99590.50
2023-10-04T17:22:05.566Z,99595.06
2023-10-04T17:24:32.403Z,99590.78
2023-10-04T17:26:59.192Z,99587.38
2023-10-04T17:29:25.958Z,99581.44
2023-10-04T17:31:53.013Z,99578.75
2023-10-04T17:34:19.795Z,99575.19
2023-10-04T17:36:46.608Z,99585.53
2023-10-04T17:39:15.267Z,99597.53
2023-10-04T17:41:42.448Z,99599.06
2023-10-04T17:44:09.430Z,99593.34
2023-10-04T17:46:36.693Z,99594.47
2023-10-04T17:49:03.628Z,99584.84
2023-10-04T17:51:30.750Z,99592.44
2023-10-04T17:54:00.189Z,99596.13
2023-10-04T17:56:27.055Z,99601.63
2023-10-04T17:58:53.791Z,99597.25
2023-10-04T18:01:22.209Z,99594.00
2023-10-04T18:03:49.231Z,99595.25
2023-10-04T18:06:19.598Z,99592.25
2023-10-04T18:08:46.475Z,99603.13
2023-10-04T18:11:13.358Z,99602.53
2023-10-04T18:13:41.945Z,99603.06
2023-10-04T18:16:09.107Z,99602.19
2023-10-04T18:18:36.172Z,99594.38
2023-10-04T18:21:02.970Z,99592.47
2023-10-04T18:23:29.791Z,99552.09
2023-10-04T18:25:58.708Z,99596.88
2023-10-04T18:28:25.446Z,99595.28
2023-10-04T18:30:52.367Z,99588.84
2023-10-04T18:33:19.247Z,99586.16
2023-10-04T18:35:46.019Z,99583.19
2023-10-04T18:38:12.804Z,99581.75
2023-10-04T18:40:39.580Z,99560.25
2023-10-04T18:43:07.674Z,99583.28
2023-10-04T18:45:36.040Z,99575.59
2023-10-04T18:48:03.253Z,99568.66
2023-10-04T18:50:30.019Z,99582.66
2023-10-04T18:52:56.803Z,99578.03
2023-10-04T18:55:23.661Z,99583.78
2023-10-04T18:57:50.490Z,99578.53
2023-10-04T19:00:17.614Z,99581.09
2023-10-04T19:02:45.048Z,99577.28
2023-10-04T19:05:13.859Z,99583.78
2023-10-04T19:07:41.165Z,99577.53
2023-10-04T19:10:11.114Z,99588.72
2023-10-04T19:12:38.011Z,99575.22
2023-10-04T19:15:07.404Z,99582.63
2023-10-04T19:17:34.230Z,99592.78
2023-10-04T19:20:01.036Z,99591.53
2023-10-04T19:22:33.065Z,99591.06
2023-10-04T19:25:00.833Z,99595.81
2023-10-04T19:27:27.857Z,99580.34
2023-10-04T19:29:54.725Z,99589.13
2023-10-04T19:32:22.297Z,99591.81
2023-10-04T19:34:49.153Z,99598.00
2023-10-04T19:37:15.985Z,99594.47
2023-10-04T19:39:43.627Z,99603.97
2023-10-04T19:42:11.018Z,99602.72
2023-10-04T19:44:39.499Z,99598.09
2023-10-04T19:47:06.476Z,99598.00
2023-10-04T19:49:37.463Z,99599.81
2023-10-04T19:52:07.263Z,99605.78
2023-10-04T19:54:34.139Z,99597.25
2023-10-04T19:57:00.861Z,99599.81
2023-10-04T19:59:28.922Z,99595.66
2023-10-04T20:01:55.690Z,99595.41
2023-10-04T20:04:24.243Z,99579.06
2023-10-04T20:06:51.765Z,99589.81
2023-10-04T20:09:26.598Z,99585.16
2023-10-04T20:11:53.911Z,99579.44
2023-10-04T20:14:20.735Z,99583.59
2023-10-04T20:16:50.490Z,99581.75
2023-10-04T20:19:18.725Z,99583.28
2023-10-04T20:21:46.338Z,99584.69
2023-10-04T20:24:13.467Z,99578.47
2023-10-04T20:26:40.244Z,99581.25
2023-10-04T20:29:07.064Z,99573.19
2023-10-04T20:31:34.513Z,99583.41
2023-10-04T20:34:02.422Z,99581.94
2023-10-04T20:36:29.323Z,99576.56
2023-10-04T20:38:57.418Z,99566.44
2023-10-04T20:41:24.422Z,99567.19
2023-10-04T20:43:52.681Z,99577.13
2023-10-04T20:46:19.486Z,99563.75
2023-10-04T20:48:47.403Z,99562.50
2023-10-04T20:51:14.273Z,99563.06
2023-10-04T20:53:41.068Z,99560.84
2023-10-04T20:56:08.024Z,99563.41
2023-10-04T20:58:34.794Z,99550.91
2023-10-04T21:01:03.111Z,99551.66
2023-10-04T21:03:31.666Z,99549.59
2023-10-04T21:05:58.630Z,99539.69
2023-10-04T21:08:26.021Z,99538.94
2023-10-04T21:10:52.740Z,99560.22
2023-10-04T21:13:19.923Z,99548.72
2023-10-04T21:15:46.738Z,99544.31
2023-10-04T21:18:14.110Z,99556.00
2023-10-04T21:20:40.864Z,99546.38
2023-10-04T21:23:07.705Z,99550.94
2023-10-04T21:25:34.628Z,99555.53
2023-10-04T21:28:01.441Z,99562.56
2023-10-04T21:30:40.077Z,99565.56
2023-10-04T21:33:17.706Z,99563.78
2023-10-04T21:35:53.622Z,99570.97
2023-10-04T21:38:27.530Z,99566.25
2023-10-04T21:40:55.639Z,99572.75
2023-10-04T21:43:22.380Z,99572.75
2023-10-04T21:45:58.464Z,99568.09
2023-10-04T21:48:30.470Z,99573.19
2023-10-04T21:50:59.359Z,99578.66
2023-10-04T21:53:26.398Z,99581.31
2023-10-04T21:55:53.346Z,99587.38
2023-10-04T21:58:20.597Z,99587.31
2023-10-04T22:00:54.725Z,99561.66
2023-10-04T22:03:25.337Z,99576.16
2023-10-04T22:05:56.946Z,99582.06
2023-10-04T22:08:25.382Z,99570.53
2023-10-04T22:10:54.749Z,99568.94
2023-10-04T22:13:21.478Z,99572.31
2023-10-04T22:15:48.805Z,99573.31
2023-10-04T22:18:15.628Z,99566.31
2023-10-04T22:20:42.793Z,99566.75
2023-10-04T22:23:10.647Z,99569.72
2023-10-04T22:25:37.516Z,99575.38
2023-10-04T22:28:07.430Z,99569.06
2023-10-04T22:30:34.973Z,99568.59
2023-10-04T22:33:02.015Z,99575.19
2023-10-04T22:35:31.018Z,99581.06
2023-10-04T22:37:58.251Z,99569.31
2023-10-04T22:40:26.209Z,99575.28
2023-10-04T22:42:58.997Z,99570.44
2023-10-04T22:45:28.016Z,99568.72
2023-10-04T22:47:56.575Z,99576.75
2023-10-04T22:50:23.910Z,99571.16
2023-10-04T22:52:51.713Z,99575.13
2023-10-04T22:55:18.518Z,99565.56
2023-10-04T22:57:52.518Z,99572.81
2023-10-04T23:00:19.876Z,99573.00
2023-10-04T23:02:47.272Z,99563.19
2023-10-04T23:05:15.051Z,99568.53
2023-10-04T23:07:42.959Z,99564.59
2023-10-04T23:10:22.754Z,99558.75
2023-10-04T23:12:51.577Z,99549.41
2023-10-04T23:15:27.495Z,99544.94
2023-10-04T23:17:58.071Z,99539.75
2023-10-04T23:20:34.935Z,99535.75
2023-10-04T23:23:06.611Z,99541.63
2023-10-04T23:25:37.193Z,99533.50
2023-10-04T23:28:07.277Z,99530.94
2023-10-04T23:30:43.039Z,99544.47
2023-10-04T23:33:10.853Z,99531.53
2023-10-04T23:35:40.903Z,99534.34
2023-10-04T23:38:22.324Z,99516.94
2023-10-04T23:40:49.816Z,99519.63
2023-10-04T23:43:20.075Z,99509.66
2023-10-04T23:45:48.085Z,99487.84
2023-10-04T23:48:34.779Z,99489.34
2023-10-04T23:51:09.445Z,99481.75
2023-10-04T23:53:42.715Z,99473.72
2023-10-04T23:56:09.629Z,99480.91
2023-10-04T23:58:44.941Z,99462.16
